sensor_id;sensor_type;location;lat;lon;timestamp;temperature;humidity
51029;DHT22;37054;52.054;8.600;2022-09-13T00:00:57;22.00;46.30
51029;DHT22;37054;52.054;8.600;2022-09-13T00:03:23;22.00;46.40
51029;DHT22;37054;52.054;8.600;2022-09-13T00:05:49;22.00;46.30
51029;DHT22;37054;52.054;8.600;2022-09-13T00:08:14;22.00;46.30
51029;DHT22;37054;52.054;8.600;2022-09-13T00:10:41;21.90;46.40
51029;DHT22;37054;52.054;8.600;2022-09-13T00:13:07;22.00;46.40
51029;DHT22;37054;52.054;8.600;2022-09-13T00:15:35;22.00;46.40
51029;DHT22;37054;52.054;8.600;2022-09-13T00:18:00;22.10;46.40
51029;DHT22;37054;52.054;8.600;2022-09-13T00:20:26;22.10;46.40
51029;DHT22;37054;52.054;8.600;2022-09-13T00:22:52;22.10;46.40
51029;DHT22;37054;52.054;8.600;2022-09-13T00:25:17;22.20;46.30
51029;DHT22;37054;52.054;8.600;2022-09-13T00:27:44;22.20;46.20
51029;DHT22;37054;52.054;8.600;2022-09-13T00:30:09;22.20;46.20
51029;DHT22;37054;52.054;8.600;2022-09-13T00:32:35;22.20;46.30
51029;DHT22;37054;52.054;8.600;2022-09-13T00:35:01;22.20;46.20
51029;DHT22;37054;52.054;8.600;2022-09-13T00:37:27;22.10;46.30
51029;DHT22;37054;52.054;8.600;2022-09-13T00:39:52;22.10;46.20
51029;DHT22;37054;52.054;8.600;2022-09-13T00:42:23;22.10;46.30
51029;DHT22;37054;52.054;8.600;2022-09-13T00:47:18;22.10;46.20
51029;DHT22;37054;52.054;8.600;2022-09-13T00:49:45;22.10;46.20
51029;DHT22;37054;52.054;8.600;2022-09-13T00:52:13;22.20;46.20
51029;DHT22;37054;52.054;8.600;2022-09-13T00:54:41;22.20;46.20
51029;DHT22;37054;52.054;8.600;2022-09-13T00:57:08;22.30;46.20
51029;DHT22;37054;52.054;8.600;2022-09-13T00:59:36;22.30;46.30
51029;DHT22;37054;52.054;8.600;2022-09-13T01:02:04;22.30;46.20
51029;DHT22;37054;52.054;8.600;2022-09-13T01:04:30;22.30;46.30
51029;DHT22;37054;52.054;8.600;2022-09-13T01:07:00;22.30;46.30
51029;DHT22;37054;52.054;8.600;2022-09-13T01:09:26;22.30;46.40
51029;DHT22;37054;52.054;8.600;2022-09-13T01:11:54;22.30;46.40
51029;DHT22;37054;52.054;8.600;2022-09-13T01:14:24;22.30;46.30
51029;DHT22;37054;52.054;8.600;2022-09-13T01:16:51;22.30;46.40
51029;DHT22;37054;52.054;8.600;2022-09-13T01:19:16;22.30;46.30
51029;DHT22;37054;52.054;8.600;2022-09-13T01:24:44;22.40;46.30
51029;DHT22;37054;52.054;8.600;2022-09-13T01:29:43;22.60;46.20
51029;DHT22;37054;52.054;8.600;2022-09-13T01:35:15;22.70;46.00
51029;DHT22;37054;52.054;8.600;2022-09-13T01:37:51;22.80;46.00
51029;DHT22;37054;52.054;8.600;2022-09-13T01:40:29;22.80;45.90
51029;DHT22;37054;52.054;8.600;2022-09-13T01:43:10;22.90;45.80
51029;DHT22;37054;52.054;8.600;2022-09-13T01:48:33;23.00;45.70
51029;DHT22;37054;52.054;8.600;2022-09-13T01:51:02;23.10;45.60
51029;DHT22;37054;52.054;8.600;2022-09-13T01:53:49;23.20;45.60
51029;DHT22;37054;52.054;8.600;2022-09-13T01:56:27;23.20;45.50
51029;DHT22;37054;52.054;8.600;2022-09-13T01:58:57;23.20;45.40
51029;DHT22;37054;52.054;8.600;2022-09-13T02:01:30;23.30;45.30
51029;DHT22;37054;52.054;8.600;2022-09-13T02:03:59;23.30;45.30
51029;DHT22;37054;52.054;8.600;2022-09-13T02:06:27;23.30;45.30
51029;DHT22;37054;52.054;8.600;2022-09-13T02:08:58;23.40;45.20
51029;DHT22;37054;52.054;8.600;2022-09-13T02:11:25;23.40;45.20
51029;DHT22;37054;52.054;8.600;2022-09-13T02:14:08;23.50;45.20
51029;DHT22;37054;52.054;8.600;2022-09-13T02:16:46;23.50;45.10
51029;DHT22;37054;52.054;8.600;2022-09-13T02:19:22;23.50;45.00
51029;DHT22;37054;52.054;8.600;2022-09-13T02:21:50;23.50;45.00
51029;DHT22;37054;52.054;8.600;2022-09-13T02:24:18;23.60;44.90
51029;DHT22;37054;52.054;8.600;2022-09-13T02:26:46;23.60;44.90
51029;DHT22;37054;52.054;8.600;2022-09-13T02:29:15;23.50;45.10
51029;DHT22;37054;52.054;8.600;2022-09-13T02:31:55;23.50;45.40
51029;DHT22;37054;52.054;8.600;2022-09-13T02:34:21;23.40;45.60
51029;DHT22;37054;52.054;8.600;2022-09-13T02:36:47;23.30;45.90
51029;DHT22;37054;52.054;8.600;2022-09-13T02:39:15;23.30;46.10
51029;DHT22;37054;52.054;8.600;2022-09-13T02:46:55;23.20;46.40
51029;DHT22;37054;52.054;8.600;2022-09-13T02:49:28;23.20;46.50
51029;DHT22;37054;52.054;8.600;2022-09-13T02:52:15;23.20;46.60
51029;DHT22;37054;52.054;8.600;2022-09-13T02:54:49;23.20;46.70
51029;DHT22;37054;52.054;8.600;2022-09-13T02:59:42;23.20;47.40
51029;DHT22;37054;52.054;8.600;2022-09-13T03:02:08;23.10;49.50
51029;DHT22;37054;52.054;8.600;2022-09-13T03:04:35;22.90;51.00
51029;DHT22;37054;52.054;8.600;2022-09-13T03:07:01;22.80;52.50
51029;DHT22;37054;52.054;8.600;2022-09-13T03:09:29;22.70;53.90
51029;DHT22;37054;52.054;8.600;2022-09-13T03:12:11;22.60;55.10
51029;DHT22;37054;52.054;8.600;2022-09-13T03:14:42;22.60;56.30
51029;DHT22;37054;52.054;8.600;2022-09-13T03:20:07;22.60;58.10
51029;DHT22;37054;52.054;8.600;2022-09-13T03:30:37;22.70;60.00
51029;DHT22;37054;52.054;8.600;2022-09-13T03:33:07;22.80;60.00
51029;DHT22;37054;52.054;8.600;2022-09-13T03:38:11;22.80;60.00
51029;DHT22;37054;52.054;8.600;2022-09-13T03:40:39;22.70;60.10
51029;DHT22;37054;52.054;8.600;2022-09-13T03:43:13;22.70;60.20
51029;DHT22;37054;52.054;8.600;2022-09-13T03:45:43;22.70;60.50
51029;DHT22;37054;52.054;8.600;2022-09-13T03:48:10;22.70;60.60
51029;DHT22;37054;52.054;8.600;2022-09-13T03:50:36;22.70;60.70
51029;DHT22;37054;52.054;8.600;2022-09-13T03:53:04;22.70;60.70
51029;DHT22;37054;52.054;8.600;2022-09-13T03:55:31;22.60;60.80
51029;DHT22;37054;52.054;8.600;2022-09-13T03:57:58;22.60;60.80
51029;DHT22;37054;52.054;8.600;2022-09-13T04:00:23;22.50;60.80
51029;DHT22;37054;52.054;8.600;2022-09-13T04:02:49;22.50;60.90
51029;DHT22;37054;52.054;8.600;2022-09-13T04:05:15;22.50;60.60
51029;DHT22;37054;52.054;8.600;2022-09-13T04:07:40;22.40;60.40
51029;DHT22;37054;52.054;8.600;2022-09-13T04:10:06;22.30;60.40
51029;DHT22;37054;52.054;8.600;2022-09-13T04:12:31;22.30;60.60
51029;DHT22;37054;52.054;8.600;2022-09-13T04:14:57;22.30;60.80
51029;DHT22;37054;52.054;8.600;2022-09-13T04:17:22;22.30;61.00
51029;DHT22;37054;52.054;8.600;2022-09-13T04:19:48;22.30;61.30
51029;DHT22;37054;52.054;8.600;2022-09-13T04:22:14;22.30;61.40
51029;DHT22;37054;52.054;8.600;2022-09-13T04:24:39;22.30;61.70
51029;DHT22;37054;52.054;8.600;2022-09-13T04:27:05;22.30;61.70
51029;DHT22;37054;52.054;8.600;2022-09-13T04:29:31;22.30;61.80
51029;DHT22;37054;52.054;8.600;2022-09-13T04:31:57;22.30;61.70
51029;DHT22;37054;52.054;8.600;2022-09-13T04:34:23;22.30;61.70
51029;DHT22;37054;52.054;8.600;2022-09-13T04:36:48;22.40;61.80
51029;DHT22;37054;52.054;8.600;2022-09-13T04:39:14;22.40;61.80
51029;DHT22;37054;52.054;8.600;2022-09-13T04:41:40;22.40;61.90
51029;DHT22;37054;52.054;8.600;2022-09-13T04:44:06;22.40;61.80
51029;DHT22;37054;52.054;8.600;2022-09-13T04:46:31;22.40;61.70
51029;DHT22;37054;52.054;8.600;2022-09-13T04:48:56;22.30;61.70
51029;DHT22;37054;52.054;8.600;2022-09-13T04:51:22;22.30;61.80
51029;DHT22;37054;52.054;8.600;2022-09-13T04:53:51;22.30;61.90
51029;DHT22;37054;52.054;8.600;2022-09-13T04:56:19;22.30;62.00
51029;DHT22;37054;52.054;8.600;2022-09-13T04:58:45;22.30;62.00
51029;DHT22;37054;52.054;8.600;2022-09-13T05:01:10;22.30;62.10
51029;DHT22;37054;52.054;8.600;2022-09-13T05:03:36;22.30;62.00
51029;DHT22;37054;52.054;8.600;2022-09-13T05:06:06;22.30;62.10
51029;DHT22;37054;52.054;8.600;2022-09-13T05:08:33;22.30;62.20
51029;DHT22;37054;52.054;8.600;2022-09-13T05:10:59;22.30;62.30
51029;DHT22;37054;52.054;8.600;2022-09-13T05:13:25;22.30;62.40
51029;DHT22;37054;52.054;8.600;2022-09-13T05:15:54;22.30;62.50
51029;DHT22;37054;52.054;8.600;2022-09-13T05:18:19;22.30;62.50
51029;DHT22;37054;52.054;8.600;2022-09-13T05:20:45;22.30;62.50
51029;DHT22;37054;52.054;8.600;2022-09-13T05:23:10;22.40;62.60
51029;DHT22;37054;52.054;8.600;2022-09-13T05:25:36;22.40;62.60
51029;DHT22;37054;52.054;8.600;2022-09-13T05:28:01;22.40;62.70
51029;DHT22;37054;52.054;8.600;2022-09-13T05:30:27;22.50;62.40
51029;DHT22;37054;52.054;8.600;2022-09-13T05:32:52;22.50;62.20
51029;DHT22;37054;52.054;8.600;2022-09-13T05:35:18;22.60;62.30
51029;DHT22;37054;52.054;8.600;2022-09-13T05:37:44;22.60;62.30
51029;DHT22;37054;52.054;8.600;2022-09-13T05:40:09;22.70;62.10
51029;DHT22;37054;52.054;8.600;2022-09-13T05:42:35;22.70;61.80
51029;DHT22;37054;52.054;8.600;2022-09-13T05:45:00;22.80;61.70
51029;DHT22;37054;52.054;8.600;2022-09-13T05:47:26;22.80;61.90
51029;DHT22;37054;52.054;8.600;2022-09-13T05:49:51;22.90;61.90
51029;DHT22;37054;52.054;8.600;2022-09-13T05:52:17;23.00;62.00
51029;DHT22;37054;52.054;8.600;2022-09-13T05:54:42;23.10;62.20
51029;DHT22;37054;52.054;8.600;2022-09-13T05:57:08;23.20;62.00
51029;DHT22;37054;52.054;8.600;2022-09-13T05:59:33;23.30;62.00
51029;DHT22;37054;52.054;8.600;2022-09-13T06:01:59;23.40;62.00
51029;DHT22;37054;52.054;8.600;2022-09-13T06:04:24;23.50;62.00
51029;DHT22;37054;52.054;8.600;2022-09-13T06:06:50;23.60;62.00
51029;DHT22;37054;52.054;8.600;2022-09-13T06:09:15;23.60;61.90
51029;DHT22;37054;52.054;8.600;2022-09-13T06:11:42;23.70;62.00
51029;DHT22;37054;52.054;8.600;2022-09-13T06:14:08;23.80;62.00
51029;DHT22;37054;52.054;8.600;2022-09-13T06:16:33;23.90;62.00
51029;DHT22;37054;52.054;8.600;2022-09-13T06:18:59;24.10;62.00
51029;DHT22;37054;52.054;8.600;2022-09-13T06:21:25;24.20;61.00
51029;DHT22;37054;52.054;8.600;2022-09-13T06:23:51;24.30;61.10
51029;DHT22;37054;52.054;8.600;2022-09-13T06:26:24;24.30;61.00
51029;DHT22;37054;52.054;8.600;2022-09-13T06:28:51;24.40;61.20
51029;DHT22;37054;52.054;8.600;2022-09-13T06:31:17;24.50;61.20
51029;DHT22;37054;52.054;8.600;2022-09-13T06:33:43;24.70;61.30
51029;DHT22;37054;52.054;8.600;2022-09-13T06:36:09;24.80;61.20
51029;DHT22;37054;52.054;8.600;2022-09-13T06:38:35;25.10;61.70
51029;DHT22;37054;52.054;8.600;2022-09-13T06:41:02;25.30;62.10
51029;DHT22;37054;52.054;8.600;2022-09-13T06:43:29;25.60;62.40
51029;DHT22;37054;52.054;8.600;2022-09-13T06:45:58;25.80;62.30
51029;DHT22;37054;52.054;8.600;2022-09-13T06:48:23;26.10;62.00
51029;DHT22;37054;52.054;8.600;2022-09-13T06:50:49;26.40;62.00
51029;DHT22;37054;52.054;8.600;2022-09-13T06:53:14;26.70;62.00
51029;DHT22;37054;52.054;8.600;2022-09-13T06:55:40;27.00;61.50
51029;DHT22;37054;52.054;8.600;2022-09-13T06:58:05;27.30;61.00
51029;DHT22;37054;52.054;8.600;2022-09-13T07:00:31;27.70;61.30
51029;DHT22;37054;52.054;8.600;2022-09-13T07:02:56;28.00;59.90
51029;DHT22;37054;52.054;8.600;2022-09-13T07:05:22;28.10;58.30
51029;DHT22;37054;52.054;8.600;2022-09-13T07:07:47;28.30;57.00
51029;DHT22;37054;52.054;8.600;2022-09-13T07:10:13;28.70;58.20
51029;DHT22;37054;52.054;8.600;2022-09-13T07:12:41;29.30;58.80
51029;DHT22;37054;52.054;8.600;2022-09-13T07:15:07;30.00;58.40
51029;DHT22;37054;52.054;8.600;2022-09-13T07:17:33;30.90;57.40
51029;DHT22;37054;52.054;8.600;2022-09-13T07:19:58;31.70;53.30
51029;DHT22;37054;52.054;8.600;2022-09-13T07:22:35;32.00;49.90
51029;DHT22;37054;52.054;8.600;2022-09-13T07:25:00;32.10;48.20
51029;DHT22;37054;52.054;8.600;2022-09-13T07:27:28;32.00;46.50
51029;DHT22;37054;52.054;8.600;2022-09-13T07:29:54;31.90;45.80
51029;DHT22;37054;52.054;8.600;2022-09-13T07:32:19;31.70;45.00
51029;DHT22;37054;52.054;8.600;2022-09-13T07:34:44;31.60;44.90
51029;DHT22;37054;52.054;8.600;2022-09-13T07:37:11;31.50;44.50
51029;DHT22;37054;52.054;8.600;2022-09-13T07:39:36;31.30;43.80
51029;DHT22;37054;52.054;8.600;2022-09-13T07:42:01;31.20;43.90
51029;DHT22;37054;52.054;8.600;2022-09-13T07:44:27;31.20;43.90
51029;DHT22;37054;52.054;8.600;2022-09-13T07:46:52;31.10;43.50
51029;DHT22;37054;52.054;8.600;2022-09-13T07:49:18;31.00;42.80
51029;DHT22;37054;52.054;8.600;2022-09-13T07:51:44;30.90;41.60
51029;DHT22;37054;52.054;8.600;2022-09-13T07:54:11;30.80;42.40
51029;DHT22;37054;52.054;8.600;2022-09-13T07:56:37;30.70;42.40
51029;DHT22;37054;52.054;8.600;2022-09-13T07:59:04;30.70;42.30
51029;DHT22;37054;52.054;8.600;2022-09-13T08:03:59;30.50;42.30
51029;DHT22;37054;52.054;8.600;2022-09-13T08:06:26;30.30;42.30
51029;DHT22;37054;52.054;8.600;2022-09-13T08:08:52;30.30;42.20
51029;DHT22;37054;52.054;8.600;2022-09-13T08:11:18;30.20;41.80
51029;DHT22;37054;52.054;8.600;2022-09-13T08:13:44;30.20;41.90
51029;DHT22;37054;52.054;8.600;2022-09-13T08:16:10;30.10;41.90
51029;DHT22;37054;52.054;8.600;2022-09-13T08:18:36;30.10;41.80
51029;DHT22;37054;52.054;8.600;2022-09-13T08:21:01;30.00;42.20
51029;DHT22;37054;52.054;8.600;2022-09-13T08:23:29;30.00;42.10
51029;DHT22;37054;52.054;8.600;2022-09-13T08:25:59;30.10;42.10
51029;DHT22;37054;52.054;8.600;2022-09-13T08:28:24;30.10;41.80
51029;DHT22;37054;52.054;8.600;2022-09-13T08:30:50;30.10;42.30
51029;DHT22;37054;52.054;8.600;2022-09-13T08:33:15;30.10;42.10
51029;DHT22;37054;52.054;8.600;2022-09-13T08:35:48;30.20;42.20
51029;DHT22;37054;52.054;8.600;2022-09-13T08:38:13;30.10;42.20
51029;DHT22;37054;52.054;8.600;2022-09-13T08:40:43;30.10;42.20
51029;DHT22;37054;52.054;8.600;2022-09-13T08:46:04;30.10;41.60
51029;DHT22;37054;52.054;8.600;2022-09-13T08:48:32;30.00;41.60
51029;DHT22;37054;52.054;8.600;2022-09-13T08:51:00;29.90;41.10
51029;DHT22;37054;52.054;8.600;2022-09-13T08:53:28;29.80;41.50
51029;DHT22;37054;52.054;8.600;2022-09-13T08:56:08;29.80;41.70
51029;DHT22;37054;52.054;8.600;2022-09-13T08:58:57;29.80;41.50
51029;DHT22;37054;52.054;8.600;2022-09-13T09:01:29;29.70;42.00
51029;DHT22;37054;52.054;8.600;2022-09-13T09:04:01;29.70;42.10
51029;DHT22;37054;52.054;8.600;2022-09-13T09:06:32;29.70;41.60
51029;DHT22;37054;52.054;8.600;2022-09-13T09:14:23;29.60;41.60
51029;DHT22;37054;52.054;8.600;2022-09-13T09:16:53;29.50;42.00
51029;DHT22;37054;52.054;8.600;2022-09-13T09:21:45;29.00;43.20
51029;DHT22;37054;52.054;8.600;2022-09-13T09:24:15;28.80;43.70
51029;DHT22;37054;52.054;8.600;2022-09-13T09:26:42;28.80;43.70
51029;DHT22;37054;52.054;8.600;2022-09-13T09:31:44;28.90;43.80
51029;DHT22;37054;52.054;8.600;2022-09-13T09:34:18;28.90;43.80
51029;DHT22;37054;52.054;8.600;2022-09-13T09:36:55;28.90;43.80
51029;DHT22;37054;52.054;8.600;2022-09-13T09:39:23;29.00;43.90
51029;DHT22;37054;52.054;8.600;2022-09-13T09:41:52;29.20;43.90
51029;DHT22;37054;52.054;8.600;2022-09-13T09:44:22;29.40;43.60
51029;DHT22;37054;52.054;8.600;2022-09-13T09:47:11;29.50;43.30
51029;DHT22;37054;52.054;8.600;2022-09-13T09:49:35;29.60;43.20
51029;DHT22;37054;52.054;8.600;2022-09-13T09:52:23;29.80;42.90
51029;DHT22;37054;52.054;8.600;2022-09-13T09:54:52;30.00;42.70
51029;DHT22;37054;52.054;8.600;2022-09-13T09:57:20;30.00;42.50
51029;DHT22;37054;52.054;8.600;2022-09-13T09:59:47;30.10;42.20
51029;DHT22;37054;52.054;8.600;2022-09-13T10:02:16;30.20;42.20
51029;DHT22;37054;52.054;8.600;2022-09-13T10:04:52;30.30;41.80
51029;DHT22;37054;52.054;8.600;2022-09-13T10:07:33;30.30;41.70
51029;DHT22;37054;52.054;8.600;2022-09-13T10:10:07;30.50;41.60
51029;DHT22;37054;52.054;8.600;2022-09-13T10:12:44;30.70;41.60
51029;DHT22;37054;52.054;8.600;2022-09-13T10:15:17;30.80;41.20
51029;DHT22;37054;52.054;8.600;2022-09-13T10:17:59;30.90;41.10
51029;DHT22;37054;52.054;8.600;2022-09-13T10:20:25;31.00;41.00
51029;DHT22;37054;52.054;8.600;2022-09-13T10:23:10;31.10;40.80
51029;DHT22;37054;52.054;8.600;2022-09-13T10:25:36;31.10;40.80
51029;DHT22;37054;52.054;8.600;2022-09-13T10:28:03;31.20;41.00
51029;DHT22;37054;52.054;8.600;2022-09-13T10:30:36;31.20;40.90
51029;DHT22;37054;52.054;8.600;2022-09-13T10:33:03;31.30;40.70
51029;DHT22;37054;52.054;8.600;2022-09-13T10:35:29;31.50;40.70
51029;DHT22;37054;52.054;8.600;2022-09-13T10:37:54;31.70;40.50
51029;DHT22;37054;52.054;8.600;2022-09-13T10:40:30;31.90;40.40
51029;DHT22;37054;52.054;8.600;2022-09-13T10:43:03;32.20;40.00
51029;DHT22;37054;52.054;8.600;2022-09-13T10:45:32;32.60;39.70
51029;DHT22;37054;52.054;8.600;2022-09-13T10:48:08;32.80;39.00
51029;DHT22;37054;52.054;8.600;2022-09-13T10:50:36;33.00;38.70
51029;DHT22;37054;52.054;8.600;2022-09-13T10:53:02;33.20;38.20
51029;DHT22;37054;52.054;8.600;2022-09-13T10:55:30;33.40;38.10
51029;DHT22;37054;52.054;8.600;2022-09-13T11:00:34;34.00;36.40
51029;DHT22;37054;52.054;8.600;2022-09-13T11:03:10;34.20;36.60
51029;DHT22;37054;52.054;8.600;2022-09-13T11:16:14;35.80;34.20
51029;DHT22;37054;52.054;8.600;2022-09-13T11:26:31;35.00;34.20
51029;DHT22;37054;52.054;8.600;2022-09-13T11:29:02;34.70;34.40
51029;DHT22;37054;52.054;8.600;2022-09-13T11:34:15;34.30;34.70
51029;DHT22;37054;52.054;8.600;2022-09-13T11:36:47;34.00;34.80
51029;DHT22;37054;52.054;8.600;2022-09-13T11:44:35;33.30;35.30
51029;DHT22;37054;52.054;8.600;2022-09-13T11:47:30;33.20;35.70
51029;DHT22;37054;52.054;8.600;2022-09-13T11:50:15;33.00;35.90
51029;DHT22;37054;52.054;8.600;2022-09-13T11:52:50;32.80;36.10
51029;DHT22;37054;52.054;8.600;2022-09-13T11:55:22;32.70;36.30
51029;DHT22;37054;52.054;8.600;2022-09-13T11:57:54;32.70;36.40
51029;DHT22;37054;52.054;8.600;2022-09-13T12:00:21;32.60;36.40
51029;DHT22;37054;52.054;8.600;2022-09-13T12:02:56;32.60;36.60
51029;DHT22;37054;52.054;8.600;2022-09-13T12:05:23;32.50;36.70
51029;DHT22;37054;52.054;8.600;2022-09-13T12:07:52;32.30;36.80
51029;DHT22;37054;52.054;8.600;2022-09-13T12:10:29;32.20;36.80
51029;DHT22;37054;52.054;8.600;2022-09-13T12:12:56;32.00;37.00
51029;DHT22;37054;52.054;8.600;2022-09-13T12:15:38;31.80;37.30
51029;DHT22;37054;52.054;8.600;2022-09-13T12:18:06;31.60;37.70
51029;DHT22;37054;52.054;8.600;2022-09-13T12:20:42;31.30;38.20
51029;DHT22;37054;52.054;8.600;2022-09-13T12:23:15;31.10;38.70
51029;DHT22;37054;52.054;8.600;2022-09-13T12:26:00;30.80;39.10
51029;DHT22;37054;52.054;8.600;2022-09-13T12:28:29;30.60;39.50
51029;DHT22;37054;52.054;8.600;2022-09-13T12:30:59;30.40;39.90
51029;DHT22;37054;52.054;8.600;2022-09-13T12:33:26;30.30;40.10
51029;DHT22;37054;52.054;8.600;2022-09-13T12:40:50;30.20;40.60
51029;DHT22;37054;52.054;8.600;2022-09-13T12:53:53;30.40;40.70
51029;DHT22;37054;52.054;8.600;2022-09-13T12:56:23;30.50;40.70
51029;DHT22;37054;52.054;8.600;2022-09-13T12:58:59;30.70;40.60
51029;DHT22;37054;52.054;8.600;2022-09-13T13:01:28;30.80;40.70
51029;DHT22;37054;52.054;8.600;2022-09-13T13:04:13;31.00;40.40
51029;DHT22;37054;52.054;8.600;2022-09-13T13:06:50;31.10;40.20
51029;DHT22;37054;52.054;8.600;2022-09-13T13:12:01;31.40;40.00
51029;DHT22;37054;52.054;8.600;2022-09-13T13:19:46;32.30;39.00
51029;DHT22;37054;52.054;8.600;2022-09-13T13:24:56;32.80;38.50
51029;DHT22;37054;52.054;8.600;2022-09-13T13:27:38;33.00;38.30
51029;DHT22;37054;52.054;8.600;2022-09-13T13:35:32;33.20;37.50
51029;DHT22;37054;52.054;8.600;2022-09-13T13:38:14;33.30;36.90
51029;DHT22;37054;52.054;8.600;2022-09-13T13:40:40;33.40;36.50
51029;DHT22;37054;52.054;8.600;2022-09-13T13:43:13;33.40;36.30
51029;DHT22;37054;52.054;8.600;2022-09-13T13:45:42;33.40;36.30
51029;DHT22;37054;52.054;8.600;2022-09-13T13:48:39;33.40;36.30
51029;DHT22;37054;52.054;8.600;2022-09-13T13:51:15;33.50;35.90
51029;DHT22;37054;52.054;8.600;2022-09-13T13:53:42;33.50;35.00
51029;DHT22;37054;52.054;8.600;2022-09-13T13:56:24;33.30;35.30
51029;DHT22;37054;52.054;8.600;2022-09-13T13:58:56;33.20;35.50
51029;DHT22;37054;52.054;8.600;2022-09-13T14:01:25;33.20;35.90
51029;DHT22;37054;52.054;8.600;2022-09-13T14:09:10;32.90;36.00
51029;DHT22;37054;52.054;8.600;2022-09-13T14:11:45;32.60;36.50
51029;DHT22;37054;52.054;8.600;2022-09-13T14:19:22;32.20;37.00
51029;DHT22;37054;52.054;8.600;2022-09-13T14:24:29;32.10;37.40
51029;DHT22;37054;52.054;8.600;2022-09-13T14:26:59;32.10;37.50
51029;DHT22;37054;52.054;8.600;2022-09-13T14:29:25;32.20;37.60
51029;DHT22;37054;52.054;8.600;2022-09-13T14:31:53;32.20;37.50
51029;DHT22;37054;52.054;8.600;2022-09-13T14:34:22;32.20;37.30
51029;DHT22;37054;52.054;8.600;2022-09-13T14:36:52;32.20;37.20
51029;DHT22;37054;52.054;8.600;2022-09-13T14:39:19;32.10;37.20
51029;DHT22;37054;52.054;8.600;2022-09-13T14:41:44;32.00;37.40
51029;DHT22;37054;52.054;8.600;2022-09-13T14:44:18;32.00;37.40
51029;DHT22;37054;52.054;8.600;2022-09-13T14:46:45;31.90;37.70
51029;DHT22;37054;52.054;8.600;2022-09-13T14:49:14;31.80;37.90
51029;DHT22;37054;52.054;8.600;2022-09-13T14:51:47;31.90;38.00
51029;DHT22;37054;52.054;8.600;2022-09-13T14:54:16;31.90;38.10
51029;DHT22;37054;52.054;8.600;2022-09-13T14:56:53;32.00;37.80
51029;DHT22;37054;52.054;8.600;2022-09-13T14:59:39;32.00;37.80
51029;DHT22;37054;52.054;8.600;2022-09-13T15:02:17;32.00;37.70
51029;DHT22;37054;52.054;8.600;2022-09-13T15:04:45;32.10;37.60
51029;DHT22;37054;52.054;8.600;2022-09-13T15:09:43;32.10;37.10
51029;DHT22;37054;52.054;8.600;2022-09-13T15:12:19;32.10;37.20
51029;DHT22;37054;52.054;8.600;2022-09-13T15:14:45;32.10;36.90
51029;DHT22;37054;52.054;8.600;2022-09-13T15:17:12;32.10;36.90
51029;DHT22;37054;52.054;8.600;2022-09-13T15:22:40;32.20;36.90
51029;DHT22;37054;52.054;8.600;2022-09-13T15:24:59;32.20;36.70
51029;DHT22;37054;52.054;8.600;2022-09-13T15:29:55;32.00;36.70
51029;DHT22;37054;52.054;8.600;2022-09-13T15:32:22;31.80;37.00
51029;DHT22;37054;52.054;8.600;2022-09-13T15:34:47;31.80;37.10
51029;DHT22;37054;52.054;8.600;2022-09-13T15:37:13;31.70;36.70
51029;DHT22;37054;52.054;8.600;2022-09-13T15:42:08;31.40;36.30
51029;DHT22;37054;52.054;8.600;2022-09-13T15:44:33;31.30;36.10
51029;DHT22;37054;52.054;8.600;2022-09-13T15:46:59;31.10;36.30
51029;DHT22;37054;52.054;8.600;2022-09-13T15:49:29;31.10;36.20
51029;DHT22;37054;52.054;8.600;2022-09-13T15:51:56;30.90;36.10
51029;DHT22;37054;52.054;8.600;2022-09-13T15:54:22;30.80;36.30
51029;DHT22;37054;52.054;8.600;2022-09-13T15:56:49;30.80;36.30
51029;DHT22;37054;52.054;8.600;2022-09-13T15:59:19;30.70;36.40
51029;DHT22;37054;52.054;8.600;2022-09-13T16:01:44;30.60;36.10
51029;DHT22;37054;52.054;8.600;2022-09-13T16:04:11;30.50;36.10
51029;DHT22;37054;52.054;8.600;2022-09-13T16:06:37;30.40;36.00
51029;DHT22;37054;52.054;8.600;2022-09-13T16:09:15;30.30;36.00
51029;DHT22;37054;52.054;8.600;2022-09-13T16:11:42;30.20;36.00
51029;DHT22;37054;52.054;8.600;2022-09-13T16:14:08;30.00;36.40
51029;DHT22;37054;52.054;8.600;2022-09-13T16:17:04;29.90;36.70
51029;DHT22;37054;52.054;8.600;2022-09-13T16:19:33;29.70;37.10
51029;DHT22;37054;52.054;8.600;2022-09-13T16:22:21;29.50;37.40
51029;DHT22;37054;52.054;8.600;2022-09-13T16:24:47;29.40;37.70
51029;DHT22;37054;52.054;8.600;2022-09-13T16:27:13;29.30;37.90
51029;DHT22;37054;52.054;8.600;2022-09-13T16:29:39;29.20;38.10
51029;DHT22;37054;52.054;8.600;2022-09-13T16:32:04;29.00;38.30
51029;DHT22;37054;52.054;8.600;2022-09-13T16:34:30;28.90;38.50
51029;DHT22;37054;52.054;8.600;2022-09-13T16:36:55;28.80;38.70
51029;DHT22;37054;52.054;8.600;2022-09-13T16:39:22;28.70;39.00
51029;DHT22;37054;52.054;8.600;2022-09-13T16:41:48;28.60;39.20
51029;DHT22;37054;52.054;8.600;2022-09-13T16:44:13;28.50;39.40
51029;DHT22;37054;52.054;8.600;2022-09-13T16:46:39;28.40;39.50
51029;DHT22;37054;52.054;8.600;2022-09-13T16:49:05;28.40;39.60
51029;DHT22;37054;52.054;8.600;2022-09-13T16:51:31;28.30;39.70
51029;DHT22;37054;52.054;8.600;2022-09-13T16:53:56;28.30;39.70
51029;DHT22;37054;52.054;8.600;2022-09-13T16:56:22;28.20;39.80
51029;DHT22;37054;52.054;8.600;2022-09-13T16:58:49;28.10;39.90
51029;DHT22;37054;52.054;8.600;2022-09-13T17:01:16;28.00;40.00
51029;DHT22;37054;52.054;8.600;2022-09-13T17:03:41;28.00;40.10
51029;DHT22;37054;52.054;8.600;2022-09-13T17:06:08;27.90;40.10
51029;DHT22;37054;52.054;8.600;2022-09-13T17:08:35;27.80;40.10
51029;DHT22;37054;52.054;8.600;2022-09-13T17:11:17;27.80;40.20
51029;DHT22;37054;52.054;8.600;2022-09-13T17:13:42;27.70;40.20
51029;DHT22;37054;52.054;8.600;2022-09-13T17:18:53;27.40;40.60
51029;DHT22;37054;52.054;8.600;2022-09-13T17:21:28;27.30;40.70
51029;DHT22;37054;52.054;8.600;2022-09-13T17:23:53;27.20;40.70
51029;DHT22;37054;52.054;8.600;2022-09-13T17:26:19;27.20;40.80
51029;DHT22;37054;52.054;8.600;2022-09-13T17:28:45;27.00;40.90
51029;DHT22;37054;52.054;8.600;2022-09-13T17:31:10;26.90;41.00
51029;DHT22;37054;52.054;8.600;2022-09-13T17:33:36;26.80;41.20
51029;DHT22;37054;52.054;8.600;2022-09-13T17:36:03;26.70;41.40
51029;DHT22;37054;52.054;8.600;2022-09-13T17:38:28;26.60;41.70
51029;DHT22;37054;52.054;8.600;2022-09-13T17:41:01;26.50;41.90
51029;DHT22;37054;52.054;8.600;2022-09-13T17:43:27;26.30;42.00
51029;DHT22;37054;52.054;8.600;2022-09-13T17:45:53;26.20;42.10
51029;DHT22;37054;52.054;8.600;2022-09-13T17:48:18;26.10;42.20
51029;DHT22;37054;52.054;8.600;2022-09-13T17:50:44;26.00;42.20
51029;DHT22;37054;52.054;8.600;2022-09-13T17:53:09;25.90;42.20
51029;DHT22;37054;52.054;8.600;2022-09-13T17:55:36;25.80;42.20
51029;DHT22;37054;52.054;8.600;2022-09-13T17:58:01;25.70;42.20